sensor_id;sensor_type;location;lat;lon;timestamp;pressure;altitude;pressure_sealevel;temperature;humidity
63694;BME280;49839;51.798;10.954;2023-07-28T00:02:12;97912.34;;;17.66;nan
63694;BME280;49839;51.798;10.954;2023-07-28T00:04:40;97915.84;;;17.67;nan
63694;BME280;49839;51.798;10.954;2023-07-28T00:07:09;97913.19;;;17.67;nan
63694;BME280;49839;51.798;10.954;2023-07-28T00:09:37;97909.69;;;17.66;nan
63694;BME280;49839;51.798;10.954;2023-07-28T00:12:05;97909.69;;;17.66;nan
63694;BME280;49839;51.798;10.954;2023-07-28T00:14:33;97912.19;;;17.68;nan
63694;BME280;49839;51.798;10.954;2023-07-28T00:17:00;97906.19;;;17.66;nan
63694;BME280;49839;51.798;10.954;2023-07-28T00:19:28;97910.69;;;17.65;nan
63694;BME280;49839;51.798;10.954;2023-07-28T00:21:56;97913.34;;;17.65;nan
63694;BME280;49839;51.798;10.954;2023-07-28T00:24:25;97911.53;;;17.66;nan
63694;BME280;49839;51.798;10.954;2023-07-28T00:26:53;97908.03;;;17.65;nan
63694;BME280;49839;51.798;10.954;2023-07-28T00:29:21;97909.69;;;17.66;nan
63694;BME280;49839;51.798;10.954;2023-07-28T00:31:48;97913.69;;;17.70;nan
63694;BME280;49839;51.798;10.954;2023-07-28T00:34:16;97908.38;;;17.70;nan
63694;BME280;49839;51.798;10.954;2023-07-28T00:36:44;97913.41;;;17.73;nan
63694;BME280;49839;51.798;10.954;2023-07-28T00:39:12;97917.91;;;17.73;nan
63694;BME280;49839;51.798;10.954;2023-07-28T00:41:41;97922.91;;;17.76;nan
63694;BME280;49839;51.798;10.954;2023-07-28T00:44:09;97915.63;;;17.78;nan
63694;BME280;49839;51.798;10.954;2023-07-28T00:46:36;97915.09;;;17.74;nan
63694;BME280;49839;51.798;10.954;2023-07-28T00:49:04;97922.25;;;17.74;nan
63694;BME280;49839;51.798;10.954;2023-07-28T00:51:33;97921.59;;;17.72;nan
63694;BME280;49839;51.798;10.954;2023-07-28T00:54:01;97923.09;;;17.74;nan
63694;BME280;49839;51.798;10.954;2023-07-28T00:56:30;97915.63;;;17.78;nan
63694;BME280;49839;51.798;10.954;2023-07-28T00:59:00;97916.47;;;17.78;nan
63694;BME280;49839;51.798;10.954;2023-07-28T01:01:28;97909.44;;;17.77;nan
63694;BME280;49839;51.798;10.954;2023-07-28T01:03:55;97913.63;;;17.80;nan
63694;BME280;49839;51.798;10.954;2023-07-28T01:06:29;97907.28;;;17.81;nan
63694;BME280;49839;51.798;10.954;2023-07-28T01:09:01;97905.28;;;17.83;nan
63694;BME280;49839;51.798;10.954;2023-07-28T01:11:30;97908.31;;;17.88;nan
63694;BME280;49839;51.798;10.954;2023-07-28T01:13:58;97906.00;;;17.85;nan
63694;BME280;49839;51.798;10.954;2023-07-28T01:16:27;97898.84;;;17.85;nan
63694;BME280;49839;51.798;10.954;2023-07-28T01:18:55;97906.00;;;17.85;nan
63694;BME280;49839;51.798;10.954;2023-07-28T01:21:26;97904.81;;;17.88;nan
63694;BME280;49839;51.798;10.954;2023-07-28T01:24:01;97900.50;;;17.86;nan
63694;BME280;49839;51.798;10.954;2023-07-28T01:26:34;97886.50;;;17.84;nan
63694;BME280;49839;51.798;10.954;2023-07-28T01:29:03;97888.97;;;17.78;nan
63694;BME280;49839;51.798;10.954;2023-07-28T01:31:32;97889.13;;;17.76;nan
63694;BME280;49839;51.798;10.954;2023-07-28T01:34:00;97878.63;;;17.75;nan
63694;BME280;49839;51.798;10.954;2023-07-28T01:36:28;97879.78;;;17.72;nan
63694;BME280;49839;51.798;10.954;2023-07-28T01:38:55;97891.53;;;17.70;nan
63694;BME280;49839;51.798;10.954;2023-07-28T01:41:23;97881.72;;;17.70;nan
63694;BME280;49839;51.798;10.954;2023-07-28T01:43:52;97876.56;;;17.69;nan
63694;BME280;49839;51.798;10.954;2023-07-28T01:46:22;97885.38;;;17.69;nan
63694;BME280;49839;51.798;10.954;2023-07-28T01:48:50;97872.06;;;17.69;nan
63694;BME280;49839;51.798;10.954;2023-07-28T01:51:18;97875.56;;;17.70;nan
63694;BME280;49839;51.798;10.954;2023-07-28T01:53:45;97879.06;;;17.70;nan
63694;BME280;49839;51.798;10.954;2023-07-28T01:56:13;97878.22;;;17.70;nan
63694;BME280;49839;51.798;10.954;2023-07-28T01:58:41;97876.72;;;17.67;nan
63694;BME280;49839;51.798;10.954;2023-07-28T02:01:12;97878.22;;;17.70;nan
63694;BME280;49839;51.798;10.954;2023-07-28T02:03:40;97886.22;;;17.70;nan
63694;BME280;49839;51.798;10.954;2023-07-28T02:06:07;97891.44;;;17.71;nan
63694;BME280;49839;51.798;10.954;2023-07-28T02:08:35;97887.78;;;17.72;nan
63694;BME280;49839;51.798;10.954;2023-07-28T02:11:03;97879.63;;;17.74;nan
63694;BME280;49839;51.798;10.954;2023-07-28T02:13:31;97883.78;;;17.76;nan
63694;BME280;49839;51.798;10.954;2023-07-28T02:15:58;97877.13;;;17.72;nan
63694;BME280;49839;51.798;10.954;2023-07-28T02:18:27;97867.47;;;17.71;nan
63694;BME280;49839;51.798;10.954;2023-07-28T02:20:55;97879.88;;;17.71;nan
63694;BME280;49839;51.798;10.954;2023-07-28T02:23:23;97883.88;;;17.67;nan
63694;BME280;49839;51.798;10.954;2023-07-28T02:25:50;97893.88;;;17.65;nan
63694;BME280;49839;51.798;10.954;2023-07-28T02:28:18;97900.16;;;17.64;nan
63694;BME280;49839;51.798;10.954;2023-07-28T02:30:46;97893.88;;;17.65;nan
63694;BME280;49839;51.798;10.954;2023-07-28T02:33:13;97899.88;;;17.67;nan
63694;BME280;49839;51.798;10.954;2023-07-28T02:35:42;97892.88;;;17.66;nan
63694;BME280;49839;51.798;10.954;2023-07-28T02:38:10;97899.19;;;17.65;nan
63694;BME280;49839;51.798;10.954;2023-07-28T02:40:38;97899.03;;;17.66;nan
63694;BME280;49839;51.798;10.954;2023-07-28T02:43:05;97904.19;;;17.68;nan
63694;BME280;49839;51.798;10.954;2023-07-28T02:45:33;97894.22;;;17.70;nan
63694;BME280;49839;51.798;10.954;2023-07-28T02:48:01;97890.72;;;17.69;nan
63694;BME280;49839;51.798;10.954;2023-07-28T02:50:28;97884.56;;;17.69;nan
63694;BME280;49839;51.798;10.954;2023-07-28T02:52:57;97898.03;;;17.67;nan
63694;BME280;49839;51.798;10.954;2023-07-28T02:55:25;97897.19;;;17.67;nan
63694;BME280;49839;51.798;10.954;2023-07-28T02:57:53;97894.38;;;17.68;nan
63694;BME280;49839;51.798;10.954;2023-07-28T03:00:20;97902.38;;;17.68;nan
63694;BME280;49839;51.798;10.954;2023-07-28T03:02:48;97899.34;;;17.63;nan
63694;BME280;49839;51.798;10.954;2023-07-28T03:05:16;97903.63;;;17.56;nan
63694;BME280;49839;51.798;10.954;2023-07-28T03:07:47;97896.44;;;17.48;nan
63694;BME280;49839;51.798;10.954;2023-07-28T03:10:16;97886.94;;;17.46;nan
63694;BME280;49839;51.798;10.954;2023-07-28T03:12:44;97879.09;;;17.44;nan
63694;BME280;49839;51.798;10.954;2023-07-28T03:15:11;97888.22;;;17.42;nan
63694;BME280;49839;51.798;10.954;2023-07-28T03:17:39;97894.72;;;17.39;nan
63694;BME280;49839;51.798;10.954;2023-07-28T03:20:08;97891.34;;;17.37;nan
63694;BME280;49839;51.798;10.954;2023-07-28T03:22:36;97895.19;;;17.35;nan
63694;BME280;49839;51.798;10.954;2023-07-28T03:25:04;97891.69;;;17.34;nan
63694;BME280;49839;51.798;10.954;2023-07-28T03:27:33;97891.16;;;17.30;nan
63694;BME280;49839;51.798;10.954;2023-07-28T03:30:01;97887.16;;;17.26;nan
63694;BME280;49839;51.798;10.954;2023-07-28T03:32:28;97882.78;;;17.25;nan
63694;BME280;49839;51.798;10.954;2023-07-28T03:34:56;97890.09;;;17.23;nan
63694;BME280;49839;51.798;10.954;2023-07-28T03:37:24;97891.75;;;17.24;nan
63694;BME280;49839;51.798;10.954;2023-07-28T03:39:52;97886.44;;;17.24;nan
63694;BME280;49839;51.798;10.954;2023-07-28T03:42:19;97892.59;;;17.25;nan
63694;BME280;49839;51.798;10.954;2023-07-28T03:44:49;97911.78;;;17.28;nan
63694;BME280;49839;51.798;10.954;2023-07-28T03:47:16;97922.09;;;17.31;nan
63694;BME280;49839;51.798;10.954;2023-07-28T03:49:44;97929.78;;;17.35;nan
63694;BME280;49839;51.798;10.954;2023-07-28T03:52:12;97934.66;;;17.39;nan
63694;BME280;49839;51.798;10.954;2023-07-28T03:54:39;97932.66;;;17.41;nan
63694;BME280;49839;51.798;10.954;2023-07-28T03:57:09;97935.38;;;17.49;nan
63694;BME280;49839;51.798;10.954;2023-07-28T03:59:36;97930.72;;;17.51;nan
63694;BME280;49839;51.798;10.954;2023-07-28T04:02:05;97925.41;;;17.51;nan
63694;BME280;49839;51.798;10.954;2023-07-28T04:04:34;97936.41;;;17.56;nan
63694;BME280;49839;51.798;10.954;2023-07-28T04:07:02;97939.41;;;17.71;nan
63694;BME280;49839;51.798;10.954;2023-07-28T04:09:30;97942.50;;;17.93;nan
63694;BME280;49839;51.798;10.954;2023-07-28T04:11:58;97940.44;;;18.12;nan
63694;BME280;49839;51.798;10.954;2023-07-28T04:14:26;97943.56;;;18.50;nan
63694;BME280;49839;51.798;10.954;2023-07-28T04:16:53;97943.84;;;18.81;nan
63694;BME280;49839;51.798;10.954;2023-07-28T04:19:22;97947.84;;;18.85;nan
63694;BME280;49839;51.798;10.954;2023-07-28T04:21:50;97954.44;;;18.65;nan
63694;BME280;49839;51.798;10.954;2023-07-28T04:24:18;97953.94;;;18.61;nan
63694;BME280;49839;51.798;10.954;2023-07-28T04:26:46;97952.72;;;18.48;nan
63694;BME280;49839;51.798;10.954;2023-07-28T04:29:15;97950.03;;;18.39;nan
63694;BME280;49839;51.798;10.954;2023-07-28T04:31:43;97941.47;;;18.28;nan
63694;BME280;49839;51.798;10.954;2023-07-28T04:34:10;97937.03;;;18.36;nan
63694;BME280;49839;51.798;10.954;2023-07-28T04:36:39;59032.25;;;-144.36;67.20
63694;BME280;49839;51.798;10.954;2023-07-28T04:39:07;97938.00;;;19.18;nan
63694;BME280;49839;51.798;10.954;2023-07-28T04:41:35;97929.81;;;19.36;nan
63694;BME280;49839;51.798;10.954;2023-07-28T04:44:03;97930.66;;;19.69;nan
63694;BME280;49839;51.798;10.954;2023-07-28T04:46:31;97931.78;;;19.91;nan
63694;BME280;49839;51.798;10.954;2023-07-28T04:48:59;97935.84;;;20.18;nan
63694;BME280;49839;51.798;10.954;2023-07-28T04:51:29;97939.19;;;20.60;nan
63694;BME280;49839;51.798;10.954;2023-07-28T04:53:58;59032.25;;;-144.36;67.20
63694;BME280;49839;51.798;10.954;2023-07-28T04:56:25;59032.25;;;-144.36;67.20
63694;BME280;49839;51.798;10.954;2023-07-28T04:58:53;59032.25;;;-144.36;67.20
63694;BME280;49839;51.798;10.954;2023-07-28T05:01:20;59032.25;;;-144.36;67.20
63694;BME280;49839;51.798;10.954;2023-07-28T05:03:48;59032.25;;;-144.36;67.20
63694;BME280;49839;51.798;10.954;2023-07-28T05:06:16;59032.25;;;-144.36;67.20
63694;BME280;49839;51.798;10.954;2023-07-28T05:08:44;59032.25;;;-144.36;67.20
63694;BME280;49839;51.798;10.954;2023-07-28T05:11:13;59032.25;;;-144.36;67.20
63694;BME280;49839;51.798;10.954;2023-07-28T05:13:40;59032.25;;;-144.36;67.20
63694;BME280;49839;51.798;10.954;2023-07-28T05:16:08;59032.25;;;-144.36;67.20
63694;BME280;49839;51.798;10.954;2023-07-28T05:18:36;59032.25;;;-144.36;67.20
63694;BME280;49839;51.798;10.954;2023-07-28T05:21:04;59032.25;;;-144.36;67.20
63694;BME280;49839;51.798;10.954;2023-07-28T05:23:32;59032.25;;;-144.36;67.20
63694;BME280;49839;51.798;10.954;2023-07-28T05:25:59;59032.25;;;-144.36;67.20
63694;BME280;49839;51.798;10.954;2023-07-28T05:28:28;59032.25;;;-144.36;67.20
63694;BME280;49839;51.798;10.954;2023-07-28T05:31:03;59032.25;;;-144.36;67.20
63694;BME280;49839;51.798;10.954;2023-07-28T05:33:31;59032.25;;;-144.36;67.20
63694;BME280;49839;51.798;10.954;2023-07-28T05:35:59;59032.25;;;-144.36;67.20
63694;BME280;49839;51.798;10.954;2023-07-28T05:38:31;59032.25;;;-144.36;67.20
63694;BME280;49839;51.798;10.954;2023-07-28T05:40:59;59032.25;;;-144.36;67.20
63694;BME280;49839;51.798;10.954;2023-07-28T05:43:29;59032.25;;;-144.36;67.20
63694;BME280;49839;51.798;10.954;2023-07-28T05:45:58;59032.25;;;-144.36;67.20
63694;BME280;49839;51.798;10.954;2023-07-28T05:48:26;59032.25;;;-144.36;67.20
63694;BME280;49839;51.798;10.954;2023-07-28T05:50:53;59032.25;;;-144.36;67.20
63694;BME280;49839;51.798;10.954;2023-07-28T05:53:21;59032.25;;;-144.36;67.20
63694;BME280;49839;51.798;10.954;2023-07-28T05:55:49;59032.25;;;-144.36;67.20
63694;BME280;49839;51.798;10.954;2023-07-28T05:58:16;59032.25;;;-144.36;67.20
63694;BME280;49839;51.798;10.954;2023-07-28T06:00:45;59032.25;;;-144.36;67.20
63694;BME280;49839;51.798;10.954;2023-07-28T06:03:15;59032.25;;;-144.36;67.20
63694;BME280;49839;51.798;10.954;2023-07-28T06:05:43;59032.25;;;-144.36;67.20
63694;BME280;49839;51.798;10.954;2023-07-28T06:08:10;59032.25;;;-144.36;67.20
63694;BME280;49839;51.798;10.954;2023-07-28T06:10:38;59032.25;;;-144.36;67.20
63694;BME280;49839;51.798;10.954;2023-07-28T06:13:06;59032.25;;;-144.36;67.20
63694;BME280;49839;51.798;10.954;2023-07-28T06:15:34;59032.25;;;-144.36;67.20
63694;BME280;49839;51.798;10.954;2023-07-28T06:18:04;59032.25;;;-144.36;67.20
63694;BME280;49839;51.798;10.954;2023-07-28T06:20:31;59032.25;;;-144.36;67.20
63694;BME280;49839;51.798;10.954;2023-07-28T06:23:00;59032.25;;;-144.36;67.20
63694;BME280;49839;51.798;10.954;2023-07-28T06:25:28;98035.72;;;22.41;nan
63694;BME280;49839;51.798;10.954;2023-07-28T06:27:56;98014.34;;;22.99;nan
63694;BME280;49839;51.798;10.954;2023-07-28T06:30:23;59032.25;;;-144.36;67.20
63694;BME280;49839;51.798;10.954;2023-07-28T06:32:52;59032.25;;;-144.36;67.20
63694;BME280;49839;51.798;10.954;2023-07-28T06:35:21;59032.25;;;-144.36;67.20
63694;BME280;49839;51.798;10.954;2023-07-28T06:37:49;59032.25;;;-144.36;67.20
63694;BME280;49839;51.798;10.954;2023-07-28T06:40:16;59032.25;;;-144.36;67.20
63694;BME280;49839;51.798;10.954;2023-07-28T06:42:44;59032.25;;;-144.36;67.20
63694;BME280;49839;51.798;10.954;2023-07-28T06:45:12;59032.25;;;-144.36;67.20
63694;BME280;49839;51.798;10.954;2023-07-28T06:47:40;59032.25;;;-144.36;67.20
63694;BME280;49839;51.798;10.954;2023-07-28T06:50:08;59032.25;;;-144.36;67.20
63694;BME280;49839;51.798;10.954;2023-07-28T06:52:37;59032.25;;;-144.36;67.20
63694;BME280;49839;51.798;10.954;2023-07-28T06:55:06;59032.25;;;-144.36;67.20
63694;BME280;49839;51.798;10.954;2023-07-28T06:57:33;59032.25;;;-144.36;67.20
63694;BME280;49839;51.798;10.954;2023-07-28T07:00:04;59032.25;;;-144.36;67.20
63694;BME280;49839;51.798;10.954;2023-07-28T07:02:35;59032.25;;;-144.36;67.20
63694;BME280;49839;51.798;10.954;2023-07-28T07:05:03;59032.25;;;-144.36;67.20
63694;BME280;49839;51.798;10.954;2023-07-28T07:07:31;59032.25;;;-144.36;67.20
63694;BME280;49839;51.798;10.954;2023-07-28T07:10:00;59032.25;;;-144.36;67.20
63694;BME280;49839;51.798;10.954;2023-07-28T07:12:28;59032.25;;;-144.36;67.20
63694;BME280;49839;51.798;10.954;2023-07-28T07:14:57;59032.25;;;-144.36;67.20
63694;BME280;49839;51.798;10.954;2023-07-28T07:17:24;59032.25;;;-144.36;67.20
63694;BME280;49839;51.798;10.954;2023-07-28T07:19:52;59032.25;;;-144.36;67.20
63694;BME280;49839;51.798;10.954;2023-07-28T07:22:20;59032.25;;;-144.36;67.20
63694;BME280;49839;51.798;10.954;2023-07-28T07:24:47;98028.44;;;26.38;nan
63694;BME280;49839;51.798;10.954;2023-07-28T07:27:17;98012.69;;;26.22;nan
63694;BME280;49839;51.798;10.954;2023-07-28T07:29:44;98030.34;;;26.17;nan
63694;BME280;49839;51.798;10.954;2023-07-28T07:32:12;98040.66;;;26.67;nan
63694;BME280;49839;51.798;10.954;2023-07-28T07:34:42;98042.13;;;26.56;nan
63694;BME280;49839;51.798;10.954;2023-07-28T07:37:10;98045.94;;;26.09;nan
63694;BME280;49839;51.798;10.954;2023-07-28T07:39:37;98043.00;;;25.57;nan
63694;BME280;49839;51.798;10.954;2023-07-28T07:42:09;98045.84;;;25.36;nan
63694;BME280;49839;51.798;10.954;2023-07-28T07:44:38;98048.38;;;24.96;nan
63694;BME280;49839;51.798;10.954;2023-07-28T07:47:12;98050.16;;;24.76;nan
63694;BME280;49839;51.798;10.954;2023-07-28T07:49:40;98059.41;;;24.60;nan
63694;BME280;49839;51.798;10.954;2023-07-28T07:52:08;98051.63;;;24.37;nan
63694;BME280;49839;51.798;10.954;2023-07-28T07:54:36;98064.16;;;24.58;nan
63694;BME280;49839;51.798;10.954;2023-07-28T07:57:05;98063.72;;;24.48;nan
63694;BME280;49839;51.798;10.954;2023-07-28T07:59:33;98069.00;;;25.17;nan
63694;BME280;49839;51.798;10.954;2023-07-28T08:02:03;98059.78;;;25.53;nan
63694;BME280;49839;51.798;10.954;2023-07-28T08:04:31;98055.00;;;25.61;nan
63694;BME280;49839;51.798;10.954;2023-07-28T08:06:59;98070.59;;;25.66;nan
63694;BME280;49839;51.798;10.954;2023-07-28T08:09:27;98071.72;;;25.24;nan
63694;BME280;49839;51.798;10.954;2023-07-28T08:11:55;98070.84;;;25.78;nan
63694;BME280;49839;51.798;10.954;2023-07-28T08:14:23;98081.66;;;26.44;nan
63694;BME280;49839;51.798;10.954;2023-07-28T08:16:50;98080.94;;;26.75;nan
63694;BME280;49839;51.798;10.954;2023-07-28T08:19:19;98081.16;;;26.80;nan
63694;BME280;49839;51.798;10.954;2023-07-28T08:21:47;98086.06;;;26.96;nan
63694;BME280;49839;51.798;10.954;2023-07-28T08:24:15;98086.47;;;27.00;nan
63694;BME280;49839;51.798;10.954;2023-07-28T08:26:42;98090.88;;;26.88;nan
63694;BME280;49839;51.798;10.954;2023-07-28T08:29:10;98083.38;;;26.90;nan
63694;BME280;49839;51.798;10.954;2023-07-28T08:31:38;98086.34;;;26.75;nan
63694;BME280;49839;51.798;10.954;2023-07-28T08:34:05;98092.03;;;26.54;nan
63694;BME280;49839;51.798;10.954;2023-07-28T08:36:35;98094.66;;;26.80;nan
63694;BME280;49839;51.798;10.954;2023-07-28T08:39:03;98101.47;;;26.89;nan
63694;BME280;49839;51.798;10.954;2023-07-28T08:41:31;98096.53;;;26.80;nan
63694;BME280;49839;51.798;10.954;2023-07-28T08:43:59;98103.03;;;-97.48;nan
63694;BME280;49839;51.798;10.954;2023-07-28T08:46:27;98102.34;;;26.83;nan
63694;BME280;49839;51.798;10.954;2023-07-28T08:48:55;98103.13;;;27.48;nan
63694;BME280;49839;51.798;10.954;2023-07-28T08:51:23;98121.59;;;27.20;nan
63694;BME280;49839;51.798;10.954;2023-07-28T08:53:52;98118.13;;;26.86;nan
63694;BME280;49839;51.798;10.954;2023-07-28T08:56:20;98107.72;;;26.90;nan
63694;BME280;49839;51.798;10.954;2023-07-28T08:58:48;59032.25;;;-144.36;67.20
63694;BME280;49839;51.798;10.954;2023-07-28T09:01:16;59032.25;;;-144.36;67.20
63694;BME280;49839;51.798;10.954;2023-07-28T09:03:45;59032.25;;;-144.36;67.20
63694;BME280;49839;51.798;10.954;2023-07-28T09:06:14;59032.25;;;-144.36;67.20
63694;BME280;49839;51.798;10.954;2023-07-28T09:08:43;59032.25;;;-144.36;67.20
63694;BME280;49839;51.798;10.954;2023-07-28T09:11:13;59032.25;;;-144.36;67.20
63694;BME280;49839;51.798;10.954;2023-07-28T09:13:41;59032.25;;;-144.36;67.20
63694;BME280;49839;51.798;10.954;2023-07-28T09:16:18;98124.25;;;28.35;nan
63694;BME280;49839;51.798;10.954;2023-07-28T09:18:46;98128.88;;;28.27;nan
63694;BME280;49839;51.798;10.954;2023-07-28T09:21:18;59032.25;;;-144.36;67.20
63694;BME280;49839;51.798;10.954;2023-07-28T09:23:48;59032.25;;;-144.36;67.20
63694;BME280;49839;51.798;10.954;2023-07-28T09:26:17;59032.25;;;-144.36;67.20
63694;BME280;49839;51.798;10.954;2023-07-28T09:28:44;98136.25;;;28.14;nan
63694;BME280;49839;51.798;10.954;2023-07-28T09:31:13;98136.25;;;28.14;100.00
63694;BME280;49839;51.798;10.954;2023-07-28T09:33:41;98140.25;;;28.61;nan
63694;BME280;49839;51.798;10.954;2023-07-28T09:36:14;98142.53;;;28.82;nan
63694;BME280;49839;51.798;10.954;2023-07-28T09:38:43;98138.81;;;28.09;nan
63694;BME280;49839;51.798;10.954;2023-07-28T09:41:11;98148.25;;;27.54;nan
63694;BME280;49839;51.798;10.954;2023-07-28T09:43:41;98151.38;;;27.58;nan
63694;BME280;49839;51.798;10.954;2023-07-28T09:46:09;98155.56;;;27.92;nan
63694;BME280;49839;51.798;10.954;2023-07-28T09:48:38;98144.63;;;28.05;nan
63694;BME280;49839;51.798;10.954;2023-07-28T09:51:12;59032.25;;;-144.36;67.20
63694;BME280;49839;51.798;10.954;2023-07-28T09:53:46;59032.25;;;-144.36;67.20
63694;BME280;49839;51.798;10.954;2023-07-28T09:56:14;59032.25;;;-144.36;67.20
63694;BME280;49839;51.798;10.954;2023-07-28T09:58:51;98147.03;;;27.95;nan
63694;BME280;49839;51.798;10.954;2023-07-28T10:01:20;98157.25;;;27.87;nan
63694;BME280;49839;51.798;10.954;2023-07-28T10:03:48;98152.19;;;28.28;nan
63694;BME280;49839;51.798;10.954;2023-07-28T10:06:16;98147.94;;;28.39;nan
63694;BME280;49839;51.798;10.954;2023-07-28T10:08:44;98143.50;;;28.20;nan
63694;BME280;49839;51.798;10.954;2023-07-28T10:11:14;98147.75;;;28.41;nan
63694;BME280;49839;51.798;10.954;2023-07-28T10:13:44;98148.25;;;28.24;nan
63694;BME280;49839;51.798;10.954;2023-07-28T10:16:13;98147.94;;;27.83;nan
63694;BME280;49839;51.798;10.954;2023-07-28T10:18:41;98149.47;;;28.35;nan
63694;BME280;49839;51.798;10.954;2023-07-28T10:21:19;98157.94;;;28.64;nan
63694;BME280;49839;51.798;10.954;2023-07-28T10:23:53;98141.81;;;28.50;nan
63694;BME280;49839;51.798;10.954;2023-07-28T10:26:31;98146.41;;;29.30;nan
63694;BME280;49839;51.798;10.954;2023-07-28T10:29:09;98153.03;;;29.34;nan
63694;BME280;49839;51.798;10.954;2023-07-28T10:31:37;98148.94;;;28.88;nan
63694;BME280;49839;51.798;10.954;2023-07-28T10:34:06;98155.94;;;28.77;nan
63694;BME280;49839;51.798;10.954;2023-07-28T10:36:35;98147.81;;;28.34;nan
63694;BME280;49839;51.798;10.954;2023-07-28T10:39:14;98147.47;;;28.49;nan
63694;BME280;49839;51.798;10.954;2023-07-28T10:42:04;98155.75;;;28.72;nan
63694;BME280;49839;51.798;10.954;2023-07-28T10:44:34;98159.59;;;28.40;nan
63694;BME280;49839;51.798;10.954;2023-07-28T10:47:02;98168.75;;;28.14;nan
63694;BME280;49839;51.798;10.954;2023-07-28T10:49:34;98163.44;;;28.32;nan
63694;BME280;49839;51.798;10.954;2023-07-28T10:52:02;98172.59;;;27.99;nan
63694;BME280;49839;51.798;10.954;2023-07-28T10:54:31;98169.09;;;27.92;nan
63694;BME280;49839;51.798;10.954;2023-07-28T10:57:01;98163.69;;;27.92;nan
63694;BME280;49839;51.798;10.954;2023-07-28T10:59:29;98174.63;;;27.72;nan
63694;BME280;49839;51.798;10.954;2023-07-28T11:01:59;98153.88;;;27.08;nan
63694;BME280;49839;51.798;10.954;2023-07-28T11:04:26;98174.34;;;27.36;nan
63694;BME280;49839;51.798;10.954;2023-07-28T11:06:54;98170.88;;;27.67;nan
63694;BME280;49839;51.798;10.954;2023-07-28T11:09:23;98157.22;;;27.48;nan
63694;BME280;49839;51.798;10.954;2023-07-28T11:11:51;98150.09;;;27.03;nan
63694;BME280;49839;51.798;10.954;2023-07-28T11:14:19;98164.44;;;27.03;nan
63694;BME280;49839;51.798;10.954;2023-07-28T11:16:47;98162.63;;;26.84;nan
63694;BME280;49839;51.798;10.954;2023-07-28T11:19:17;98169.72;;;26.65;nan
63694;BME280;49839;51.798;10.954;2023-07-28T11:21:51;98167.66;;;26.54;nan
63694;BME280;49839;51.798;10.954;2023-07-28T11:24:20;98162.44;;;26.52;nan
63694;BME280;49839;51.798;10.954;2023-07-28T11:26:49;98174.72;;;26.55;nan
63694;BME280;49839;51.798;10.954;2023-07-28T11:29:18;98165.59;;;26.56;nan
63694;BME280;49839;51.798;10.954;2023-07-28T11:31:47;98169.34;;;26.48;nan
63694;BME280;49839;51.798;10.954;2023-07-28T11:34:17;98160.16;;;26.36;nan
63694;BME280;49839;51.798;10.954;2023-07-28T11:36:45;98166.22;;;26.44;nan
63694;BME280;49839;51.798;10.954;2023-07-28T11:39:13;98167.25;;;26.57;nan
63694;BME280;49839;51.798;10.954;2023-07-28T11:41:42;98155.16;;;26.66;nan
63694;BME280;49839;51.798;10.954;2023-07-28T11:44:10;79687.44;;;26.78;67.20
63694;BME280;49839;51.798;10.954;2023-07-28T11:46:39;98178.88;;;26.64;nan
63694;BME280;49839;51.798;10.954;2023-07-28T11:49:09;98170.38;;;26.47;nan
63694;BME280;49839;51.798;10.954;2023-07-28T11:51:40;98166.81;;;26.40;nan
63694;BME280;49839;51.798;10.954;2023-07-28T11:54:11;98167.69;;;26.47;nan
63694;BME280;49839;51.798;10.954;2023-07-28T11:56:40;59032.25;;;26.33;67.20
63694;BME280;49839;51.798;10.954;2023-07-28T11:59:08;98168.03;;;26.24;nan
63694;BME280;49839;51.798;10.954;2023-07-28T12:01:51;98180.94;;;26.35;nan
63694;BME280;49839;51.798;10.954;2023-07-28T12:04:23;98173.22;;;26.39;nan
63694;BME280;49839;51.798;10.954;2023-07-28T12:07:07;98181.13;;;26.34;nan
63694;BME280;49839;51.798;10.954;2023-07-28T12:09:50;98180.50;;;26.38;nan
63694;BME280;49839;51.798;10.954;2023-07-28T12:12:23;98191.78;;;26.42;nan
63694;BME280;49839;51.798;10.954;2023-07-28T12:14:52;98188.63;;;26.58;nan
63694;BME280;49839;51.798;10.954;2023-07-28T12:17:25;98175.31;;;26.77;nan
63694;BME280;49839;51.798;10.954;2023-07-28T12:20:14;98189.06;;;26.62;nan
63694;BME280;49839;51.798;10.954;2023-07-28T12:22:45;98180.75;;;26.63;nan
63694;BME280;49839;51.798;10.954;2023-07-28T12:25:13;98185.09;;;26.71;nan
63694;BME280;49839;51.798;10.954;2023-07-28T12:27:41;98178.25;;;26.62;nan
63694;BME280;49839;51.798;10.954;2023-07-28T12:30:09;98172.22;;;26.66;nan
63694;BME280;49839;51.798;10.954;2023-07-28T12:32:40;98180.50;;;26.38;nan
63694;BME280;49839;51.798;10.954;2023-07-28T12:35:27;98187.56;;;26.26;nan
63694;BME280;49839;51.798;10.954;2023-07-28T12:38:02;98194.59;;;26.14;nan
63694;BME280;49839;51.798;10.954;2023-07-28T12:40:51;98194.34;;;25.89;nan
63694;BME280;49839;51.798;10.954;2023-07-28T12:43:21;98183.78;;;25.87;nan
63694;BME280;49839;51.798;10.954;2023-07-28T12:45:52;98185.88;;;25.92;nan
63694;BME280;49839;51.798;10.954;2023-07-28T12:48:23;98191.03;;;25.80;nan
63694;BME280;49839;51.798;10.954;2023-07-28T12:50:51;98182.31;;;25.78;nan
63694;BME280;49839;51.798;10.954;2023-07-28T12:53:23;98194.47;;;25.61;nan
63694;BME280;49839;51.798;10.954;2023-07-28T12:55:51;98195.28;;;25.61;nan
63694;BME280;49839;51.798;10.954;2023-07-28T12:58:21;98193.31;;;25.77;nan
63694;BME280;49839;51.798;10.954;2023-07-28T13:00:52;98196.06;;;25.97;nan
63694;BME280;49839;51.798;10.954;2023-07-28T13:03:23;98173.94;;;25.66;nan
63694;BME280;49839;51.798;10.954;2023-07-28T13:05:51;98196.75;;;25.57;nan
63694;BME280;49839;51.798;10.954;2023-07-28T13:08:18;98195.88;;;25.50;nan
63694;BME280;49839;51.798;10.954;2023-07-28T13:11:07;98202.34;;;25.62;nan